• Join FlightAware (Why Join?)
  • Login
  • US Flag 
01:55PM EST


 

Airport Tracker/Info


-or-


 

Live Flight TrackerFlight Track Log ✈ SQH3321 ✈ 02-Sep-2010 ✈ KPDT - KPDX

Flight Track Log - Related Links

Times and Time Zones

All times are in EDT time to prevent confusion due to time zone crossing. See the SQH3321 flight status page for this flight to view local times or setup timezone preferences in your user account.

Time Position Orientation Groundspeed Altitude Reporting Facility
EDT Latitude Longitude Course Direction KTS MPH feet Rate Location/Type
08:27AM 45.6156 -119.2250 267° West -1  Level FlightAware Approximate
08:28AM 45.5289 -120.9650 274° West 250 288 12,400 6,881 Climbing Seattle Center
08:29AM 45.5342 -121.0630 273° West 250 288 12,400 50 Level Seattle Center
08:30AM 45.5372 -121.1580 275° West 245 282 12,500 50 Climbing Seattle Center
08:31AM 45.5422 -121.2470 274° West 245 282 12,500  Level Seattle Center
08:32AM 45.5456 -121.3240 274° West 237 273 12,500  Level Seattle Center
08:33AM 45.5503 -121.4280 272° West 237 273 12,500  Level Seattle Center
08:34AM 45.5531 -121.5260 274° West 234 269 12,500  Level Seattle Center
08:35AM 45.5578 -121.6270 252° West 237 273 12,500 -350 Level Seattle Center
08:36AM 45.5375 -121.7150 260° West 234 269 11,800 -864 Descending Seattle Center
08:37AM 45.5256 -121.8090 263° West 240 276 10,800 -1,000 Descending Seattle Center
08:38AM 45.5175 -121.9010 263° West 240 276 9,800 -1,150 Descending Seattle Center
08:39AM 45.5094 -122.0010 261° West 240 276 8,500 -1,300 Descending Seattle Center
08:40AM 45.4992 -122.0960 261° West 246 283 7,200 -1,350 Descending Seattle Center
08:41AM 45.4892 -122.1870 265° West 246 283 5,800 -1,450 Descending Seattle Center
08:42AM 45.4831 -122.2810 268° West 241 277 4,300 -1,462 Descending Seattle Center
08:42AM 45.4825 -122.3050 287° West 235 270 3,900 -1,397 Descending Seattle Center
08:43AM 45.4994 -122.3830 302° West 224 258 2,600 -939 Descending Seattle Center
08:44AM 45.5292 -122.4520 297° West 198 228 2,100 -673 Descending Seattle Center
08:45AM 45.5447 -122.4950 295° West 193 222 1,400 -716 Descending Seattle Center
08:46AM 45.5486 -122.5070 304° West 140 161 1,300 -600 Descending Seattle Center
08:46AM 45.5625 -122.5370 299° West 156 180 800 -689 Descending Seattle Center
08:47AM 45.5683 -122.5520 295° West 123 142 600 -200 Descending Seattle Center
08:47AM 45.5800 -122.5880 295° West 149 171 600  Level Seattle Center